createdAt,value
2022-12-04T00:00:26.718Z,99851.75
2022-12-04T00:02:53.249Z,99851.00
2022-12-04T00:05:19.792Z,99843.56
2022-12-04T00:07:46.441Z,99849.47
2022-12-04T00:10:12.966Z,99843.06
2022-12-04T00:12:39.556Z,99842.53
2022-12-04T00:17:55.403Z,99831.94
2022-12-04T00:20:22.040Z,99830.19
2022-12-04T00:22:48.612Z,99835.34
2022-12-04T00:25:15.316Z,99832.00
2022-12-04T00:27:41.964Z,99832.53
2022-12-04T00:30:11.463Z,99826.69
2022-12-04T00:32:37.952Z,99829.91
2022-12-04T00:35:07.101Z,99822.41
2022-12-04T00:37:34.496Z,99826.03
2022-12-04T00:40:01.117Z,99819.28
2022-12-04T00:42:27.583Z,99826.81
2022-12-04T00:44:54.068Z,99817.47
2022-12-04T00:47:23.415Z,99814.53
2022-12-04T00:49:50.192Z,99816.13
2022-12-04T00:52:18.173Z,99814.06
2022-12-04T00:54:49.837Z,99810.22
2022-12-04T00:57:16.617Z,99804.31
2022-12-04T00:59:43.103Z,99810.25
2022-12-04T01:02:11.773Z,99812.84
2022-12-04T01:04:38.255Z,99810.41
2022-12-04T01:07:05.527Z,99811.84
2022-12-04T01:09:33.748Z,99811.63
2022-12-04T01:12:00.236Z,99816.03
2022-12-04T01:14:26.853Z,99817.97
2022-12-04T01:16:53.424Z,99819.34
2022-12-04T01:19:20.228Z,99811.09
2022-12-04T01:21:46.740Z,99807.66
2022-12-04T01:24:13.256Z,99818.34
2022-12-04T01:26:41.100Z,99812.03
2022-12-04T01:29:07.843Z,99816.91
2022-12-04T01:31:34.577Z,99824.28
2022-12-04T01:34:01.110Z,99820.59
2022-12-04T01:36:28.538Z,99801.38
2022-12-04T01:38:55.787Z,99815.78
2022-12-04T01:41:25.199Z,99812.91
2022-12-04T01:44:15.338Z,99820.03
2022-12-04T01:46:43.441Z,99805.47
2022-12-04T01:49:13.163Z,99813.53
2022-12-04T01:51:41.994Z,99806.41
2022-12-04T01:54:12.073Z,99801.53
2022-12-04T01:56:41.370Z,99806.06
2022-12-04T01:59:09.264Z,99803.38
2022-12-04T02:01:42.615Z,99802.09
2022-12-04T02:04:09.281Z,99800.19
2022-12-04T02:06:35.817Z,99793.13
2022-12-04T02:09:03.350Z,99794.81
2022-12-04T02:11:38.285Z,99788.75
2022-12-04T02:14:20.024Z,99782.50
2022-12-04T02:16:56.453Z,99796.47
2022-12-04T02:19:55.740Z,99801.09
2022-12-04T02:22:36.895Z,99794.84
2022-12-04T02:25:10.415Z,99810.53
2022-12-04T02:27:59.394Z,99799.84
2022-12-04T02:30:28.941Z,99790.84
2022-12-04T02:33:02.326Z,99800.81
2022-12-04T02:35:33.296Z,99787.78
2022-12-04T02:38:06.215Z,99791.69
2022-12-04T02:40:39.824Z,99789.44
2022-12-04T02:43:13.789Z,99794.31
2022-12-04T02:45:45.294Z,99794.69
2022-12-04T02:48:16.963Z,99796.88
2022-12-04T02:50:46.192Z,99799.50
2022-12-04T02:53:16.381Z,99798.31
2022-12-04T02:55:48.432Z,99796.31
2022-12-04T02:58:25.405Z,99804.13
2022-12-04T03:00:55.812Z,99792.59
2022-12-04T03:03:24.989Z,99793.44
2022-12-04T03:05:57.625Z,99793.66
2022-12-04T03:08:29.498Z,99802.38
2022-12-04T03:10:59.288Z,99801.28
2022-12-04T03:13:32.916Z,99800.94
2022-12-04T03:16:03.907Z,99800.66
2022-12-04T03:18:34.115Z,99801.41
2022-12-04T03:21:03.840Z,99807.22
2022-12-04T03:23:34.184Z,99804.28
2022-12-04T03:26:04.741Z,99805.59
2022-12-04T03:28:41.624Z,99803.97
2022-12-04T03:31:09.757Z,99804.25
2022-12-04T03:33:42.063Z,99804.25
2022-12-04T03:36:16.624Z,99806.78
2022-12-04T03:38:49.258Z,99798.34
2022-12-04T03:41:24.582Z,99802.97
2022-12-04T03:43:59.094Z,99793.81
2022-12-04T03:46:31.272Z,99802.16
2022-12-04T03:49:04.501Z,99800.66
2022-12-04T03:51:36.444Z,99792.41
2022-12-04T03:54:07.609Z,99795.44
2022-12-04T03:56:37.619Z,99791.78
2022-12-04T03:59:09.094Z,99801.28
2022-12-04T04:01:40.992Z,99796.28
2022-12-04T04:04:12.436Z,99794.66
2022-12-04T04:06:44.141Z,99788.03
2022-12-04T04:09:15.114Z,99787.94
2022-12-04T04:11:47.305Z,99797.66
2022-12-04T04:14:21.940Z,99798.59
2022-12-04T04:16:52.804Z,99804.03
2022-12-04T04:19:21.572Z,99810.69
2022-12-04T04:21:50.367Z,99812.41
2022-12-04T04:24:28.033Z,99809.47
2022-12-04T04:26:55.749Z,99807.59
2022-12-04T04:29:23.645Z,99808.66
2022-12-04T04:31:59.573Z,99804.34
2022-12-04T04:34:37.897Z,99800.72
2022-12-04T04:37:11.797Z,99795.16
2022-12-04T04:39:44.317Z,99802.28
2022-12-04T04:42:17.687Z,99806.44
2022-12-04T04:44:51.272Z,99806.06
2022-12-04T04:47:24.072Z,99809.63
2022-12-04T04:49:52.578Z,99808.16
2022-12-04T04:52:22.222Z,99795.34
2022-12-04T04:54:48.725Z,99795.22
2022-12-04T04:57:26.088Z,99802.34
2022-12-04T04:59:54.172Z,99797.53
2022-12-04T05:02:20.990Z,99801.28
2022-12-04T05:04:47.640Z,99799.75
2022-12-04T05:07:14.085Z,99796.09
2022-12-04T05:09:41.488Z,99792.66
2022-12-04T05:12:09.092Z,99795.00
2022-12-04T05:14:35.597Z,99788.53
2022-12-04T05:17:10.745Z,99791.97
2022-12-04T05:19:39.112Z,99795.25
2022-12-04T05:22:05.578Z,99789.59
2022-12-04T05:24:32.109Z,99796.34
2022-12-04T05:26:58.835Z,99793.19
2022-12-04T05:29:25.276Z,99788.44
2022-12-04T05:31:51.731Z,99782.09
2022-12-04T05:34:19.563Z,99781.94
2022-12-04T05:36:46.018Z,99787.81
2022-12-04T05:39:13.364Z,99783.06
2022-12-04T05:41:39.847Z,99784.31
2022-12-04T05:44:06.357Z,99788.50
2022-12-04T05:46:32.970Z,99786.97
2022-12-04T05:48:59.544Z,99788.00
2022-12-04T05:51:27.550Z,99783.59
2022-12-04T05:53:54.459Z,99776.81
2022-12-04T05:56:20.992Z,99782.13
2022-12-04T05:58:47.651Z,99787.56
2022-12-04T06:01:17.732Z,99783.88
2022-12-04T06:03:44.528Z,99791.56
2022-12-04T06:06:17.503Z,99789.47
2022-12-04T06:08:50.348Z,99790.50
2022-12-04T06:11:19.325Z,99791.44
2022-12-04T06:13:46.542Z,99782.97
2022-12-04T06:16:14.619Z,99788.50
2022-12-04T06:18:41.598Z,99783.66
2022-12-04T06:21:08.920Z,99783.38
2022-12-04T06:23:35.883Z,99788.44
2022-12-04T06:26:07.068Z,99785.56
2022-12-04T06:28:34.725Z,99792.50
2022-12-04T06:31:02.010Z,99783.94
2022-12-04T06:33:28.751Z,99793.59
2022-12-04T06:35:58.716Z,99802.16
2022-12-04T06:38:25.391Z,99796.09
2022-12-04T06:40:51.857Z,99803.91
2022-12-04T06:43:19.669Z,99795.81
2022-12-04T06:45:46.298Z,99799.47
2022-12-04T06:48:12.809Z,99803.91
2022-12-04T06:50:39.426Z,99800.44
2022-12-04T06:53:08.464Z,99791.53
2022-12-04T06:55:35.273Z,99798.72
2022-12-04T06:58:01.817Z,99797.19
2022-12-04T07:00:29.639Z,99807.72
2022-12-04T07:02:56.243Z,99805.59
2022-12-04T07:05:22.698Z,99806.56
2022-12-04T07:07:49.189Z,99806.25
2022-12-04T07:10:16.054Z,99809.63
2022-12-04T07:12:42.674Z,99805.47
2022-12-04T07:15:10.229Z,99805.53
2022-12-04T07:17:38.046Z,99805.59
2022-12-04T07:20:05.725Z,99800.03
2022-12-04T07:22:35.199Z,99789.44
2022-12-04T07:25:01.821Z,99802.28
2022-12-04T07:27:31.702Z,99809.53
2022-12-04T07:29:58.582Z,99814.53
2022-12-04T07:32:25.103Z,99806.47
2022-12-04T07:34:52.973Z,99816.59
2022-12-04T07:37:19.505Z,99825.34
2022-12-04T07:39:45.959Z,99818.44
2022-12-04T07:42:12.576Z,99821.13
2022-12-04T07:44:39.008Z,99811.22
2022-12-04T07:47:05.627Z,99816.63
2022-12-04T07:49:32.168Z,99820.19
2022-12-04T07:52:00.299Z,99827.78
2022-12-04T07:54:26.761Z,99824.16
2022-12-04T07:56:53.253Z,99832.88
2022-12-04T07:59:19.770Z,99820.63
2022-12-04T08:01:46.308Z,99825.22
2022-12-04T08:04:12.957Z,99835.56
2022-12-04T08:06:39.856Z,99837.66
2022-12-04T08:09:10.223Z,99839.09
2022-12-04T08:11:37.394Z,99842.25
2022-12-04T08:14:05.575Z,99833.75
2022-12-04T08:16:35.215Z,99839.75
2022-12-04T08:19:01.779Z,99835.16
2022-12-04T08:21:31.239Z,99829.13
2022-12-04T08:23:59.751Z,99834.47
2022-12-04T08:26:31.983Z,99829.59
2022-12-04T08:29:00.799Z,99835.00
2022-12-04T08:31:29.570Z,99833.81
2022-12-04T08:33:58.535Z,99842.06
2022-12-04T08:36:25.516Z,99826.81
2022-12-04T08:38:52.210Z,99841.75
2022-12-04T08:41:20.194Z,99831.97
2022-12-04T08:43:51.162Z,99838.03
2022-12-04T08:46:18.724Z,99829.84
2022-12-04T08:48:46.462Z,99836.06
2022-12-04T08:51:14.865Z,99835.59
2022-12-04T08:53:41.588Z,99832.44
2022-12-04T08:56:08.613Z,99828.97
2022-12-04T08:58:35.123Z,99824.91
2022-12-04T09:01:07.716Z,99824.81
2022-12-04T09:03:34.696Z,99830.25
2022-12-04T09:06:02.578Z,99828.00
2022-12-04T09:08:29.331Z,99829.84
2022-12-04T09:11:01.838Z,99828.63
2022-12-04T09:13:28.359Z,99828.78
2022-12-04T09:15:55.042Z,99836.16
2022-12-04T09:18:22.933Z,99823.25
2022-12-04T09:20:59.054Z,99830.13
2022-12-04T09:23:26.299Z,99819.63
2022-12-04T09:25:52.813Z,99830.56
2022-12-04T09:28:19.672Z,99824.34
2022-12-04T09:30:55.467Z,99833.50
2022-12-04T09:33:23.352Z,99825.22
2022-12-04T09:35:50.165Z,99826.63
2022-12-04T09:38:16.647Z,99827.06
2022-12-04T09:40:50.532Z,99831.75
2022-12-04T09:43:28.159Z,99827.31
2022-12-04T09:46:02.342Z,99834.34
2022-12-04T09:48:33.334Z,99844.88
2022-12-04T09:51:02.342Z,99847.00
2022-12-04T09:56:19.832Z,99856.47
2022-12-04T09:58:52.539Z,99854.59
2022-12-04T10:01:24.089Z,99845.78
2022-12-04T10:03:54.235Z,99851.34
2022-12-04T10:06:24.224Z,99850.09
2022-12-04T10:08:58.662Z,99853.19
2022-12-04T10:11:36.765Z,99840.81
2022-12-04T10:14:14.361Z,99841.53
2022-12-04T10:16:56.380Z,99830.75
2022-12-04T10:19:32.466Z,99829.75
2022-12-04T10:22:10.424Z,99834.13
2022-12-04T10:24:43.654Z,99832.78
2022-12-04T10:27:14.993Z,99829.09
2022-12-04T10:29:43.639Z,99831.75
2022-12-04T10:32:19.916Z,99826.44
2022-12-04T10:34:50.391Z,99812.72
2022-12-04T10:37:16.900Z,99813.41
2022-12-04T10:39:50.168Z,99800.59
2022-12-04T10:42:26.456Z,99810.75
2022-12-04T10:44:53.205Z,99814.63
2022-12-04T10:47:20.703Z,99807.63
2022-12-04T10:49:48.924Z,99808.25
2022-12-04T10:52:15.690Z,99807.19
2022-12-04T10:54:46.126Z,99805.25
2022-12-04T10:57:13.165Z,99808.00
2022-12-04T10:59:48.082Z,99796.53
2022-12-04T11:02:20.934Z,99792.00
2022-12-04T11:04:55.445Z,99783.31
2022-12-04T11:07:24.432Z,99790.84
2022-12-04T11:09:59.524Z,99778.78
2022-12-04T11:12:26.266Z,99779.28
2022-12-04T11:15:11.817Z,99776.78
2022-12-04T11:17:38.332Z,99782.69
2022-12-04T11:23:25.911Z,99771.53
2022-12-04T11:25:58.223Z,99759.97
2022-12-04T11:28:45.564Z,99771.19
2022-12-04T11:31:18.519Z,99765.34
2022-12-04T11:33:51.443Z,99771.56
2022-12-04T11:36:21.602Z,99748.34
2022-12-04T11:38:50.774Z,99762.41
2022-12-04T11:41:25.961Z,99765.53
2022-12-04T11:43:56.700Z,99767.94
2022-12-04T11:46:28.866Z,99755.41
2022-12-04T11:48:55.537Z,99766.25
2022-12-04T11:51:32.541Z,99757.47
2022-12-04T11:54:06.969Z,99765.41
2022-12-04T11:56:38.551Z,99755.41
2022-12-04T11:59:29.075Z,99749.91
2022-12-04T12:02:03.109Z,99754.69
2022-12-04T12:04:45.613Z,99763.91
2022-12-04T12:07:25.700Z,99752.22
2022-12-04T12:10:01.592Z,99754.66
2022-12-04T12:12:40.801Z,99748.59
2022-12-04T12:15:21.887Z,99748.19
2022-12-04T12:17:59.150Z,99743.41
2022-12-04T12:20:32.879Z,99746.41
2022-12-04T12:23:11.619Z,99743.03
2022-12-04T12:25:52.294Z,99747.38
2022-12-04T12:28:37.720Z,99742.78
2022-12-04T12:31:32.169Z,99746.41
2022-12-04T12:34:05.024Z,99751.94
2022-12-04T12:36:41.289Z,99745.28
2022-12-04T12:39:16.108Z,99744.75
2022-12-04T12:41:50.279Z,99740.53
2022-12-04T12:44:21.494Z,99736.94
2022-12-04T12:46:54.195Z,99719.59
2022-12-04T12:49:28.587Z,99722.53
2022-12-04T12:52:01.294Z,99738.41
2022-12-04T12:54:36.669Z,99731.44
2022-12-04T12:57:11.292Z,99740.31
2022-12-04T12:59:41.950Z,99733.84
2022-12-04T13:02:17.877Z,99742.69
2022-12-04T13:04:48.863Z,99737.41
2022-12-04T13:07:31.760Z,99730.53
2022-12-04T13:10:04.645Z,99735.72
2022-12-04T13:12:39.488Z,99714.03
2022-12-04T13:15:06.942Z,99721.16
2022-12-04T13:17:38.843Z,99715.47
2022-12-04T13:20:14.080Z,99711.75
2022-12-04T13:22:51.714Z,99718.50
2022-12-04T13:25:36.375Z,99707.41
2022-12-04T13:28:17.576Z,99714.41
2022-12-04T13:30:48.513Z,99709.22
2022-12-04T13:33:49.830Z,99705.03
2022-12-04T13:36:49.222Z,99710.53
2022-12-04T13:39:36.115Z,99703.03
2022-12-04T13:42:26.147Z,99699.38
2022-12-04T13:44:57.096Z,99697.84
2022-12-04T13:47:30.953Z,99696.47
2022-12-04T13:50:25.186Z,99709.69
2022-12-04T13:52:51.722Z,99703.03
2022-12-04T13:55:27.198Z,99701.41
2022-12-04T13:57:55.773Z,99699.25
2022-12-04T14:00:30.945Z,99696.19
2022-12-04T14:03:00.032Z,99699.84
2022-12-04T14:05:30.501Z,99699.38
2022-12-04T14:08:07.178Z,99700.53
2022-12-04T14:10:36.293Z,99709.16
2022-12-04T14:13:06.039Z,99698.22
2022-12-04T14:15:36.991Z,99702.50
2022-12-04T14:18:16.105Z,99702.94
2022-12-04T14:20:44.413Z,99712.28
2022-12-04T14:23:28.084Z,99703.16
2022-12-04T14:25:55.568Z,99704.09
2022-12-04T14:28:27.710Z,99697.56
2022-12-04T14:31:19.865Z,99702.50
2022-12-04T14:33:49.481Z,99688.69
2022-12-04T14:36:19.282Z,99700.22
2022-12-04T14:38:48.839Z,99702.25
2022-12-04T14:41:23.802Z,99696.97
2022-12-04T14:43:50.558Z,99692.78
2022-12-04T14:46:22.554Z,99686.47
2022-12-04T14:48:58.977Z,99676.81
2022-12-04T14:51:34.329Z,99675.88
2022-12-04T14:54:09.217Z,99685.56
2022-12-04T14:56:57.882Z,99679.09
2022-12-04T14:59:33.701Z,99686.19
2022-12-04T15:02:01.795Z,99695.03
2022-12-04T15:04:32.645Z,99700.25
2022-12-04T15:07:00.617Z,99692.88
2022-12-04T15:09:28.367Z,99704.56
2022-12-04T15:11:58.414Z,99698.84
2022-12-04T15:14:25.121Z,99689.22
2022-12-04T15:17:03.598Z,99695.03
2022-12-04T15:19:30.186Z,99688.66
2022-12-04T15:21:59.567Z,99695.91
2022-12-04T15:24:26.158Z,99693.72
2022-12-04T15:26:54.256Z,99692.75
2022-12-04T15:29:25.515Z,99687.88
2022-12-04T15:31:54.757Z,99704.06
2022-12-04T15:34:25.740Z,99712.97
2022-12-04T15:36:59.644Z,99715.09
2022-12-04T15:39:28.248Z,99699.44
2022-12-04T15:42:05.125Z,99709.13
2022-12-04T15:44:33.125Z,99716.84
2022-12-04T15:47:02.404Z,99712.41
2022-12-04T15:49:31.397Z,99705.31
2022-12-04T15:52:06.801Z,99713.84
2022-12-04T15:54:50.375Z,99720.03
2022-12-04T15:57:28.737Z,99719.94
2022-12-04T15:59:56.735Z,99717.97
2022-12-04T16:02:25.534Z,99724.84
2022-12-04T16:04:53.752Z,99719.28
2022-12-04T16:07:22.488Z,99715.13
2022-12-04T16:10:01.094Z,99716.84
2022-12-04T16:12:31.779Z,99706.78
2022-12-04T16:14:58.635Z,99714.91
2022-12-04T16:17:30.325Z,99710.16
2022-12-04T16:19:59.297Z,99719.03
2022-12-04T16:22:26.562Z,99706.63
2022-12-04T16:24:54.017Z,99704.84
2022-12-04T16:27:22.830Z,99705.78
2022-12-04T16:29:49.463Z,99712.47
2022-12-04T16:32:18.353Z,99705.44
2022-12-04T16:35:15.193Z,99700.19
2022-12-04T16:37:41.779Z,99711.72
2022-12-04T16:40:09.819Z,99712.75
2022-12-04T16:42:36.357Z,99717.13
2022-12-04T16:45:03.307Z,99708.91
2022-12-04T16:47:31.938Z,99720.13
2022-12-04T16:49:59.754Z,99720.06
2022-12-04T16:52:26.324Z,99729.88
2022-12-04T16:54:52.783Z,99731.19
2022-12-04T16:57:19.319Z,99738.88
2022-12-04T16:59:45.887Z,99740.38
2022-12-04T17:02:16.038Z,99733.47
2022-12-04T17:04:42.754Z,99738.50
2022-12-04T17:07:10.809Z,99737.28
2022-12-04T17:09:37.338Z,99742.28
2022-12-04T17:12:04.261Z,99744.25
2022-12-04T17:14:32.481Z,99742.06
2022-12-04T17:17:02.321Z,99748.41
2022-12-04T17:19:29.360Z,99751.97
2022-12-04T17:21:55.874Z,99762.56
2022-12-04T17:24:23.754Z,99751.56
2022-12-04T17:26:50.263Z,99751.22
2022-12-04T17:29:16.780Z,99747.63
2022-12-04T17:31:45.423Z,99746.28
2022-12-04T17:34:12.020Z,99745.25
2022-12-04T17:36:38.521Z,99742.06
2022-12-04T17:39:05.038Z,99738.66
2022-12-04T17:41:33.061Z,99736.41
2022-12-04T17:44:00.063Z,99727.28
2022-12-04T17:46:26.794Z,99744.44
2022-12-04T17:48:56.339Z,99732.75
2022-12-04T17:51:24.296Z,99739.34
2022-12-04T17:53:51.364Z,99737.47
2022-12-04T17:56:20.433Z,99735.16
2022-12-04T17:58:49.782Z,99741.13
2022-12-04T18:01:19.438Z,99746.22
2022-12-04T18:03:49.702Z,99734.22
2022-12-04T18:06:18.548Z,99736.69
2022-12-04T18:08:49.754Z,99740.88
2022-12-04T18:11:16.930Z,99741.81
2022-12-04T18:13:43.526Z,99742.00
2022-12-04T18:16:11.971Z,99735.97
2022-12-04T18:18:38.844Z,99737.56
2022-12-04T18:21:07.791Z,99736.72
2022-12-04T18:23:34.297Z,99729.94
2022-12-04T18:26:00.921Z,99728.06
2022-12-04T18:28:29.722Z,99733.63
2022-12-04T18:30:56.353Z,99740.16
2022-12-04T18:33:24.500Z,99732.00
2022-12-04T18:35:54.338Z,99731.75
2022-12-04T18:38:21.084Z,99734.94
2022-12-04T18:40:47.624Z,99725.44
2022-12-04T18:43:14.170Z,99731.09
2022-12-04T18:45:40.809Z,99733.13
2022-12-04T18:48:07.432Z,99730.53
2022-12-04T18:50:35.561Z,99734.81
2022-12-04T18:53:02.157Z,99738.53
2022-12-04T18:55:28.720Z,99736.63
2022-12-04T18:57:55.270Z,99734.56
2022-12-04T19:00:22.120Z,99731.00
2022-12-04T19:02:48.679Z,99712.88
2022-12-04T19:05:15.433Z,99714.81
2022-12-04T19:08:04.860Z,99707.81
2022-12-04T19:11:32.211Z,99716.09
2022-12-04T19:14:23.882Z,99718.97
2022-12-04T19:17:25.232Z,99722.59
2022-12-04T19:20:13.150Z,99720.00
2022-12-04T19:26:35.199Z,99721.00
2022-12-04T19:29:30.335Z,99728.13
2022-12-04T19:35:35.980Z,99735.56
2022-12-04T19:38:50.663Z,99719.13
2022-12-04T19:59:04.147Z,99725.50
2022-12-04T20:12:37.971Z,99747.81
2022-12-04T20:15:57.413Z,99760.31
2022-12-04T20:18:59.238Z,99742.06
2022-12-04T20:21:29.983Z,99746.38
2022-12-04T20:24:09.218Z,99747.06
2022-12-04T20:26:51.779Z,99754.66
2022-12-04T20:29:38.522Z,99749.03
2022-12-04T20:35:27.322Z,99746.69
2022-12-04T20:38:09.243Z,99749.75
2022-12-04T20:40:44.665Z,99752.88
2022-12-04T20:43:17.721Z,99738.72
2022-12-04T20:48:50.537Z,99728.94
2022-12-04T20:51:29.095Z,99736.91
2022-12-04T20:54:04.057Z,99719.19
2022-12-04T20:56:48.281Z,99721.25
2022-12-04T20:59:38.263Z,99716.00
2022-12-04T21:02:20.771Z,99720.69
2022-12-04T21:04:54.053Z,99729.81
2022-12-04T21:07:23.948Z,99713.53
2022-12-04T21:09:53.837Z,99704.09
2022-12-04T21:12:32.984Z,99708.19
2022-12-04T21:15:20.336Z,99717.97
2022-12-04T21:17:58.890Z,99709.31
2022-12-04T21:20:34.138Z,99711.38
2022-12-04T21:23:05.232Z,99703.19
2022-12-04T21:25:41.074Z,99715.28
2022-12-04T21:28:41.775Z,99699.94
2022-12-04T21:31:13.141Z,99704.47
2022-12-04T21:33:44.398Z,99703.47
2022-12-04T21:36:22.192Z,99702.41
2022-12-04T21:39:05.630Z,99703.69
2022-12-04T21:41:46.854Z,99699.84
2022-12-04T21:44:15.625Z,99707.47
2022-12-04T21:47:03.136Z,99709.44
2022-12-04T21:49:35.064Z,99711.75
2022-12-04T21:52:07.548Z,99709.81
2022-12-04T21:54:39.325Z,99709.09
2022-12-04T21:57:09.776Z,99742.88
2022-12-04T21:59:40.996Z,99738.72
2022-12-04T22:02:09.443Z,99747.94
2022-12-04T22:04:40.897Z,99754.13
2022-12-04T22:07:10.348Z,99740.44
2022-12-04T22:09:54.758Z,99757.69
2022-12-04T22:12:49.053Z,99753.66
2022-12-04T22:15:27.999Z,99740.47
2022-12-04T22:17:58.460Z,99773.69
2022-12-04T22:20:24.986Z,99756.22
2022-12-04T22:22:52.796Z,99767.72
2022-12-04T22:25:19.303Z,99770.34
2022-12-04T22:27:45.784Z,99772.50
2022-12-04T22:30:13.205Z,99767.34
2022-12-04T22:32:39.696Z,99774.34
2022-12-04T22:35:06.603Z,99771.03
2022-12-04T22:37:33.344Z,99768.50
2022-12-04T22:40:01.352Z,99768.47
2022-12-04T22:42:27.895Z,99765.22
2022-12-04T22:44:54.375Z,99767.88
2022-12-04T22:47:20.840Z,99771.91
2022-12-04T22:49:47.384Z,99772.66
2022-12-04T22:52:13.969Z,99768.03
2022-12-04T22:54:40.455Z,99776.06
2022-12-04T22:57:08.566Z,99769.59
2022-12-04T22:59:35.103Z,99780.03
2022-12-04T23:02:01.809Z,99775.13
2022-12-04T23:04:29.062Z,99777.81
2022-12-04T23:06:55.671Z,99775.56
2022-12-04T23:09:22.158Z,99782.72
2022-12-04T23:11:50.645Z,99784.63
2022-12-04T23:14:18.531Z,99792.50
2022-12-04T23:16:45.109Z,99782.00
2022-12-04T23:19:13.935Z,99786.19
2022-12-04T23:21:40.996Z,99787.94
2022-12-04T23:24:08.021Z,99783.19
2022-12-04T23:26:36.269Z,99783.38
2022-12-04T23:29:05.336Z,99799.78
2022-12-04T23:31:38.228Z,99794.38
2022-12-04T23:34:05.698Z,99780.00
2022-12-04T23:36:32.563Z,99781.59
2022-12-04T23:38:59.253Z,99777.53
2022-12-04T23:41:27.539Z,99774.34
2022-12-04T23:43:54.827Z,99772.44
2022-12-04T23:46:23.590Z,99768.59
2022-12-04T23:48:51.695Z,99758.44
2022-12-04T23:51:19.892Z,99767.03
2022-12-04T23:53:47.426Z,99770.06
2022-12-04T23:56:16.257Z,99759.56
2022-12-04T23:58:44.266Z,99759.75
